Pinon, New Mexico
Current Conditions -  °F | °C
As of 5:35 AM on Thursday 18 Dec 2014 (Local Time) from KALM Reporting Station
Scattered Clouds Scattered Clouds  
Wind Chill: 30°   Ceiling: Unl
Heat Index: 36°   Visibility: 10mi
Dew Point: 32°   Wind: 7mph
Humidity: 87%   Direction: 170°S
Pressure: 30.13"   Gusts: NA
Location:  32.62°N, 105.39°W
Report Text: KALM 181235Z AUTO 17006KT 10SM SCT080 02/00 A3013 RMK AO2
Loading
Personal Weather Stations






























Interactive Weather Map New forecast layout! Learn more

10-Day Weather Forecast

Advertisements
Track Severe Weather on mobile